Time;durP1;ratioP1;P1;durP2;ratioP2;P2;SDS_P1;SDS_P2;PMS_P1;PMS_P2;Temp;Humidity;BMP_temperature;BMP_pressure;BME280_temperature;BME280_humidity;BME280_pressure;Samples;Min_cycle;Max_cycle;Signal;HPM_P1;HPM_P2
2023/05/19 00:02:17;;;;;;;3.67;3.22;;;;;;;;;;5092248;28;20019;-62
2023/05/19 00:04:43;;;;;;;9.00;3.40;;;;;;;;;;5092371;28;20064;-62
2023/05/19 00:07:10;;;;;;;5.40;3.80;;;;;;;;;;5092446;28;20113;-62
2023/05/19 00:09:36;;;;;;;3.88;3.30;;;;;;;;;;5092419;28;20496;-62
2023/05/19 00:12:02;;;;;;;4.70;3.40;;;;;;;;;;5092681;28;20024;-62
2023/05/19 00:14:27;;;;;;;3.78;3.20;;;;;;;;;;5092753;28;20494;-62
2023/05/19 00:16:54;;;;;;;4.78;3.92;;;;;;;;;;5092597;28;20444;-62
2023/05/19 00:19:20;;;;;;;3.75;3.45;;;;;;;;;;5092602;28;20024;-62
2023/05/19 00:21:46;;;;;;;4.35;3.67;;;;;;;;;;5092607;28;20382;-63
2023/05/19 00:24:12;;;;;;;4.68;3.28;;;;;;;;;;5092145;28;20024;-62
2023/05/19 00:26:37;;;;;;;3.88;3.05;;;;;;;;;;5081612;28;20020;-62
2023/05/19 00:29:03;;;;;;;3.63;3.25;;;;;;;;;;5072016;28;20029;-63
2023/05/19 00:31:30;;;;;;;4.40;3.40;;;;;;;;;;5080347;28;20019;-62
2023/05/19 00:33:56;;;;;;;3.95;3.42;;;;;;;;;;5089751;28;20387;-62
2023/05/19 00:36:21;;;;;;;4.55;3.58;;;;;;;;;;5092123;28;20028;-62
2023/05/19 00:38:47;;;;;;;4.90;3.35;;;;;;;;;;5090020;28;20016;-62
2023/05/19 00:41:12;;;;;;;3.40;3.10;;;;;;;;;;5091089;28;20024;-63
2023/05/19 00:43:38;;;;;;;3.83;3.17;;;;;;;;;;5094771;28;20081;-62
2023/05/19 00:46:03;;;;;;;3.72;3.28;;;;;;;;;;5095011;28;20016;-62
2023/05/19 00:48:29;;;;;;;3.67;3.38;;;;;;;;;;5093725;28;20464;-62
2023/05/19 00:51:03;;;;;;;3.38;3.10;;;;;;;;;;5094716;28;20024;-62
2023/05/19 00:53:30;;;;;;;6.55;4.32;;;;;;;;;;5093944;28;20024;-62
2023/05/19 00:55:57;;;;;;;4.82;3.05;;;;;;;;;;5093237;28;20027;-62
2023/05/19 00:58:28;;;;;;;4.00;3.25;;;;;;;;;;5093407;28;20024;-62
2023/05/19 01:00:56;;;;;;;5.50;3.05;;;;;;;;;;5094847;28;20028;-62
2023/05/19 01:03:21;;;;;;;5.85;3.20;;;;;;;;;;5094469;28;20020;-62
2023/05/19 01:05:48;;;;;;;4.03;3.20;;;;;;;;;;5095280;28;20042;-62
2023/05/19 01:08:15;;;;;;;3.33;3.03;;;;;;;;;;5094309;28;20024;-62
2023/05/19 01:10:40;;;;;;;4.32;3.30;;;;;;;;;;5095245;28;20438;-62
2023/05/19 01:13:06;;;;;;;3.85;3.33;;;;;;;;;;5094555;28;20095;-62
2023/05/19 01:15:57;;;;;;;3.20;2.90;;;;;;;;;;5094470;28;20024;-63
2023/05/19 01:18:41;;;;;;;3.33;3.00;;;;;;;;;;5089077;28;20044;-63
2023/05/19 01:21:35;;;;;;;4.60;3.00;;;;;;;;;;5095132;28;20047;-62
2023/05/19 01:24:38;;;;;;;5.90;3.78;;;;;;;;;;5095325;28;20050;-62
2023/05/19 01:27:06;;;;;;;5.50;3.42;;;;;;;;;;5095581;28;20066;-63
2023/05/19 01:29:43;;;;;;;3.20;2.90;;;;;;;;;;5095354;28;20024;-62
2023/05/19 01:32:10;;;;;;;4.03;3.15;;;;;;;;;;5095201;28;20118;-62
2023/05/19 01:34:41;;;;;;;5.40;3.72;;;;;;;;;;5095227;28;20481;-62
2023/05/19 01:37:07;;;;;;;3.65;3.10;;;;;;;;;;5095141;28;20379;-62
2023/05/19 01:39:34;;;;;;;4.50;3.33;;;;;;;;;;5094999;28;20059;-62
2023/05/19 01:42:01;;;;;;;3.78;3.20;;;;;;;;;;5095033;28;20024;-62
2023/05/19 01:44:27;;;;;;;3.35;3.05;;;;;;;;;;5094684;28;20527;-62
2023/05/19 01:46:53;;;;;;;4.38;3.20;;;;;;;;;;5094868;28;20035;-62
2023/05/19 01:49:18;;;;;;;3.65;2.95;;;;;;;;;;5095076;28;20028;-62
2023/05/19 01:51:44;;;;;;;4.18;3.38;;;;;;;;;;5095069;28;20043;-62
2023/05/19 01:54:10;;;;;;;3.85;3.00;;;;;;;;;;5094106;28;20024;-62
2023/05/19 01:57:05;;;;;;;3.30;3.00;;;;;;;;;;5094801;28;20078;-62
2023/05/19 01:59:56;;;;;;;3.15;2.78;;;;;;;;;;5092976;28;20036;-62
2023/05/19 02:02:27;;;;;;;3.45;2.95;;;;;;;;;;5094977;28;20384;-62
2023/05/19 02:04:58;;;;;;;3.55;3.20;;;;;;;;;;5094493;28;20491;-62
2023/05/19 02:07:40;;;;;;;3.28;2.97;;;;;;;;;;5094921;28;20372;-62
2023/05/19 02:10:10;;;;;;;6.40;3.17;;;;;;;;;;5094677;28;20020;-62
2023/05/19 02:12:36;;;;;;;;;;;;;;;;;;5095137;28;20024;-62
2023/05/19 02:15:15;;;;;;;3.67;3.03;;;;;;;;;;5094335;28;20352;-62
2023/05/19 02:17:47;;;;;;;3.53;3.10;;;;;;;;;;5094603;28;20094;-62
2023/05/19 02:20:14;;;;;;;3.90;2.90;;;;;;;;;;5094260;28;20031;-62
2023/05/19 02:22:40;;;;;;;4.18;3.13;;;;;;;;;;5094436;28;20020;-62
2023/05/19 02:25:06;;;;;;;3.50;3.20;;;;;;;;;;5094363;28;20024;-62
2023/05/19 02:27:33;;;;;;;3.80;3.03;;;;;;;;;;5094379;28;20383;-62
2023/05/19 02:29:58;;;;;;;4.20;3.10;;;;;;;;;;5094294;28;20418;-62
2023/05/19 02:32:24;;;;;;;4.32;2.97;;;;;;;;;;5093982;28;20153;-62
2023/05/19 02:34:50;;;;;;;3.25;2.95;;;;;;;;;;5094009;28;20119;-62
2023/05/19 02:37:16;;;;;;;3.63;3.10;;;;;;;;;;5093990;28;20052;-62
2023/05/19 02:39:42;;;;;;;3.97;3.00;;;;;;;;;;5093865;28;20024;-62
2023/05/19 02:42:08;;;;;;;3.70;3.00;;;;;;;;;;5093893;28;20414;-62
2023/05/19 02:44:35;;;;;;;3.80;3.10;;;;;;;;;;5093611;28;20094;-62
2023/05/19 02:47:01;;;;;;;4.32;3.05;;;;;;;;;;5093816;28;20043;-62
2023/05/19 02:49:29;;;;;;;3.45;2.70;;;;;;;;;;5093595;28;20020;-62
2023/05/19 02:51:55;;;;;;;3.35;2.72;;;;;;;;;;5093684;28;20038;-62
2023/05/19 02:54:21;;;;;;;3.13;2.80;;;;;;;;;;5093851;28;20024;-62
2023/05/19 02:56:46;;;;;;;3.15;2.75;;;;;;;;;;5093831;28;20525;-62
2023/05/19 02:59:12;;;;;;;3.03;2.72;;;;;;;;;;5093762;28;20032;-62
2023/05/19 03:01:39;;;;;;;3.15;2.75;;;;;;;;;;5093497;28;20107;-62
2023/05/19 03:04:04;;;;;;;3.50;3.20;;;;;;;;;;5093538;28;20380;-62
2023/05/19 03:06:31;;;;;;;3.05;2.72;;;;;;;;;;5093381;28;20031;-62
2023/05/19 03:08:57;;;;;;;3.55;2.90;;;;;;;;;;5093617;28;20498;-62
2023/05/19 03:11:22;;;;;;;4.40;3.00;;;;;;;;;;5093284;28;20107;-62
2023/05/19 03:13:48;;;;;;;3.65;2.90;;;;;;;;;;5093193;28;20024;-62
2023/05/19 03:16:13;;;;;;;3.47;2.95;;;;;;;;;;5093121;28;20028;-62
2023/05/19 03:18:40;;;;;;;3.00;2.78;;;;;;;;;;5093412;28;20028;-62
2023/05/19 03:21:06;;;;;;;3.15;2.70;;;;;;;;;;5093432;28;20093;-62
2023/05/19 03:23:31;;;;;;;4.78;3.08;;;;;;;;;;5093389;28;20460;-62
2023/05/19 03:25:57;;;;;;;3.15;2.80;;;;;;;;;;5092935;28;20476;-62
2023/05/19 03:28:22;;;;;;;4.45;3.42;;;;;;;;;;5092041;28;20085;-62
2023/05/19 03:30:51;;;;;;;3.25;2.80;;;;;;;;;;5092928;28;20020;-62
2023/05/19 03:33:16;;;;;;;3.92;2.50;;;;;;;;;;5092844;28;20024;-62
2023/05/19 03:35:43;;;;;;;4.10;3.70;;;;;;;;;;5092940;28;20032;-62
2023/05/19 03:38:09;;;;;;;3.95;3.20;;;;;;;;;;5093163;28;20028;-62
2023/05/19 03:40:34;;;;;;;3.70;3.40;;;;;;;;;;5093084;28;20471;-63
2023/05/19 03:43:00;;;;;;;4.43;2.80;;;;;;;;;;5092671;28;20700;-62
2023/05/19 03:45:25;;;;;;;3.45;3.15;;;;;;;;;;5092752;28;20024;-63
2023/05/19 03:47:51;;;;;;;3.42;3.05;;;;;;;;;;5093020;28;20051;-62
2023/05/19 03:50:16;;;;;;;3.03;2.80;;;;;;;;;;5092604;28;20043;-63
2023/05/19 03:52:45;;;;;;;3.17;2.92;;;;;;;;;;5092667;28;20047;-62
2023/05/19 03:55:11;;;;;;;3.90;2.90;;;;;;;;;;5092707;28;20120;-62
2023/05/19 03:57:36;;;;;;;2.80;2.53;;;;;;;;;;5092539;28;20028;-62
2023/05/19 04:00:05;;;;;;;2.90;2.67;;;;;;;;;;5092622;28;20027;-62
2023/05/19 04:02:31;;;;;;;3.15;2.85;;;;;;;;;;5092473;28;20028;-62
2023/05/19 04:04:56;;;;;;;4.43;3.15;;;;;;;;;;5092690;28;20036;-62
2023/05/19 04:07:22;;;;;;;2.97;2.67;;;;;;;;;;5092744;28;20540;-62
2023/05/19 04:09:48;;;;;;;3.00;2.55;;;;;;;;;;5092798;28;20031;-62
2023/05/19 04:12:14;;;;;;;3.78;3.00;;;;;;;;;;5092546;28;20020;-62
2023/05/19 04:14:40;;;;;;;3.00;2.80;;;;;;;;;;5092533;28;20028;-62
2023/05/19 04:17:05;;;;;;;3.78;2.72;;;;;;;;;;5093342;28;20035;-63
2023/05/19 04:19:31;;;;;;;3.38;2.95;;;;;;;;;;5096642;28;20020;-62
2023/05/19 04:21:56;;;;;;;3.08;2.78;;;;;;;;;;5096585;28;20417;-62
2023/05/19 04:24:22;;;;;;;3.22;2.60;;;;;;;;;;5096738;28;20039;-63
2023/05/19 04:26:48;;;;;;;2.78;2.58;;;;;;;;;;5095303;28;20627;-63
2023/05/19 04:29:16;;;;;;;3.30;3.00;;;;;;;;;;5096344;28;20081;-63
2023/05/19 04:31:43;;;;;;;2.90;2.60;;;;;;;;;;5096702;28;20039;-63
2023/05/19 04:34:09;;;;;;;3.00;2.70;;;;;;;;;;5096292;28;20472;-63
2023/05/19 04:36:35;;;;;;;4.13;3.17;;;;;;;;;;5096504;28;20028;-63
2023/05/19 04:39:04;;;;;;;3.78;3.00;;;;;;;;;;5096458;28;20040;-63
2023/05/19 04:41:30;;;;;;;3.70;2.77;;;;;;;;;;5096286;28;20028;-63
2023/05/19 04:43:56;;;;;;;3.20;2.90;;;;;;;;;;5095993;28;20621;-63
2023/05/19 04:46:23;;;;;;;3.22;2.92;;;;;;;;;;5096058;28;20035;-63
2023/05/19 04:48:49;;;;;;;3.00;2.70;;;;;;;;;;5096424;28;20175;-63
2023/05/19 04:51:16;;;;;;;3.35;3.05;;;;;;;;;;5095875;28;20020;-64
2023/05/19 04:53:42;;;;;;;3.13;2.70;;;;;;;;;;5095944;28;20028;-63
2023/05/19 04:56:08;;;;;;;3.40;3.00;;;;;;;;;;5095884;28;20464;-63
2023/05/19 04:58:34;;;;;;;4.07;3.13;;;;;;;;;;5095915;28;20024;-63
2023/05/19 05:01:00;;;;;;;4.15;2.80;;;;;;;;;;5096065;28;20080;-63
2023/05/19 05:03:25;;;;;;;3.20;2.90;;;;;;;;;;5096048;28;20043;-63
2023/05/19 05:05:51;;;;;;;3.63;3.08;;;;;;;;;;5095596;28;20039;-63
2023/05/19 05:08:21;;;;;;;3.65;3.35;;;;;;;;;;5095673;28;20028;-63
2023/05/19 05:10:49;;;;;;;2.80;2.60;;;;;;;;;;5095902;28;20020;-63
2023/05/19 05:13:15;;;;;;;3.13;2.80;;;;;;;;;;5095526;28;20031;-63
2023/05/19 05:15:41;;;;;;;2.92;2.72;;;;;;;;;;5095818;28;20016;-63
2023/05/19 05:18:07;;;;;;;2.95;2.67;;;;;;;;;;5095530;28;20471;-63
2023/05/19 05:20:33;;;;;;;3.17;2.88;;;;;;;;;;5095426;28;20116;-64
2023/05/19 05:22:59;;;;;;;3.20;2.90;;;;;;;;;;5095438;28;20024;-64
2023/05/19 05:25:25;;;;;;;3.42;3.10;;;;;;;;;;5095374;28;20028;-64
2023/05/19 05:27:51;;;;;;;3.22;2.92;;;;;;;;;;5094495;28;20099;-64
2023/05/19 05:30:16;;;;;;;3.55;2.75;;;;;;;;;;5095092;28;20476;-64
2023/05/19 05:32:42;;;;;;;3.90;3.20;;;;;;;;;;5095145;28;20020;-64
2023/05/19 05:35:08;;;;;;;3.90;2.90;;;;;;;;;;5095619;28;20024;-63
2023/05/19 05:37:33;;;;;;;4.95;3.00;;;;;;;;;;5095473;28;20028;-63
2023/05/19 05:39:59;;;;;;;3.15;2.90;;;;;;;;;;5094887;28;20417;-64
2023/05/19 05:42:24;;;;;;;3.03;2.83;;;;;;;;;;5094196;28;20052;-63
2023/05/19 05:44:50;;;;;;;3.25;2.95;;;;;;;;;;5093925;28;20098;-63
2023/05/19 05:47:16;;;;;;;4.13;3.00;;;;;;;;;;5094401;28;20024;-63
2023/05/19 05:49:42;;;;;;;3.53;3.05;;;;;;;;;;5094920;28;20368;-62
2023/05/19 05:52:11;;;;;;;3.60;3.30;;;;;;;;;;5094775;28;20028;-62
2023/05/19 05:54:37;;;;;;;3.55;3.25;;;;;;;;;;5094889;28;20479;-63
2023/05/19 05:57:03;;;;;;;3.08;2.88;;;;;;;;;;5094634;28;20020;-62
2023/05/19 05:59:28;;;;;;;3.50;3.20;;;;;;;;;;5093881;28;20024;-62
2023/05/19 06:01:54;;;;;;;4.50;3.45;;;;;;;;;;5094624;28;20538;-62
2023/05/19 06:04:19;;;;;;;3.50;3.20;;;;;;;;;;5094891;28;20115;-62
2023/05/19 06:06:45;;;;;;;3.60;3.30;;;;;;;;;;5093331;28;20046;-63
2023/05/19 06:09:11;;;;;;;3.25;2.95;;;;;;;;;;5094786;28;20027;-62
2023/05/19 06:11:36;;;;;;;3.50;3.20;;;;;;;;;;5094969;28;20103;-63
2023/05/19 06:14:03;;;;;;;3.25;2.95;;;;;;;;;;5094461;28;20039;-62
2023/05/19 06:16:28;;;;;;;3.30;3.00;;;;;;;;;;5094284;28;20021;-63
2023/05/19 06:18:54;;;;;;;3.67;3.15;;;;;;;;;;5094316;28;20027;-63
2023/05/19 06:21:20;;;;;;;3.30;3.00;;;;;;;;;;5094291;28;20050;-63
2023/05/19 06:23:46;;;;;;;3.45;3.15;;;;;;;;;;5093658;28;20136;-63
2023/05/19 06:26:11;;;;;;;3.90;3.50;;;;;;;;;;5094404;28;20166;-63
2023/05/19 06:28:37;;;;;;;3.33;3.03;;;;;;;;;;5094474;28;20052;-63
2023/05/19 06:31:02;;;;;;;3.33;3.03;;;;;;;;;;5094087;28;20544;-63
2023/05/19 06:33:28;;;;;;;3.38;2.88;;;;;;;;;;5094004;28;20028;-62
2023/05/19 06:35:53;;;;;;;4.40;3.40;;;;;;;;;;5093893;28;20140;-63
2023/05/19 06:38:19;;;;;;;5.00;3.25;;;;;;;;;;5094475;28;20165;-63
2023/05/19 06:40:44;;;;;;;4.57;2.90;;;;;;;;;;5093332;28;20024;-63
2023/05/19 06:43:10;;;;;;;3.55;3.25;;;;;;;;;;5093302;28;20044;-63
2023/05/19 06:45:35;;;;;;;5.32;3.53;;;;;;;;;;5093710;28;20024;-64
2023/05/19 06:48:01;;;;;;;3.92;3.40;;;;;;;;;;5093964;28;20020;-63
2023/05/19 06:50:26;;;;;;;3.42;3.13;;;;;;;;;;5093736;28;20464;-63
2023/05/19 06:52:52;;;;;;;3.67;3.25;;;;;;;;;;5093985;28;20050;-63
2023/05/19 06:55:18;;;;;;;4.20;3.20;;;;;;;;;;5093615;28;20023;-63
2023/05/19 06:57:43;;;;;;;3.67;3.38;;;;;;;;;;5093610;28;20032;-64
2023/05/19 07:00:12;;;;;;;4.93;3.33;;;;;;;;;;5093831;28;20028;-64
2023/05/19 07:02:38;;;;;;;3.88;3.05;;;;;;;;;;5093893;28;20436;-64
2023/05/19 07:05:04;;;;;;;3.60;3.30;;;;;;;;;;5093297;28;20120;-64
2023/05/19 07:07:29;;;;;;;4.50;3.25;;;;;;;;;;5093493;28;20060;-64
2023/05/19 07:09:55;;;;;;;3.45;3.15;;;;;;;;;;5093327;28;20035;-64
2023/05/19 07:12:21;;;;;;;4.35;3.50;;;;;;;;;;5093628;28;20016;-64
2023/05/19 07:14:46;;;;;;;3.60;3.28;;;;;;;;;;5093677;28;20016;-64
2023/05/19 07:17:12;;;;;;;3.83;3.10;;;;;;;;;;5074945;28;20024;-63
2023/05/19 07:19:37;;;;;;;3.95;3.33;;;;;;;;;;5093142;28;20064;-62
2023/05/19 07:22:03;;;;;;;4.97;3.40;;;;;;;;;;5093552;28;20088;-62
2023/05/19 07:24:29;;;;;;;4.03;3.00;;;;;;;;;;5093330;28;20107;-63
2023/05/19 07:26:55;;;;;;;3.10;2.80;;;;;;;;;;5093563;28;20028;-62
2023/05/19 07:29:20;;;;;;;3.58;3.25;;;;;;;;;;5093356;28;20027;-63
2023/05/19 07:31:46;;;;;;;3.40;3.10;;;;;;;;;;5093463;28;20367;-63
2023/05/19 07:34:11;;;;;;;4.30;3.28;;;;;;;;;;5092861;28;20039;-63
2023/05/19 07:36:37;;;;;;;4.00;2.90;;;;;;;;;;5093052;28;20024;-64
2023/05/19 07:39:02;;;;;;;3.72;3.13;;;;;;;;;;5092972;28;20443;-63
2023/05/19 07:41:28;;;;;;;7.30;3.08;;;;;;;;;;5092822;28;20024;-63
2023/05/19 07:43:53;;;;;;;4.20;3.50;;;;;;;;;;5092424;28;20048;-63
2023/05/19 07:46:20;;;;;;;3.95;3.10;;;;;;;;;;5092737;28;20055;-63
2023/05/19 07:48:46;;;;;;;5.43;3.17;;;;;;;;;;5093018;28;20078;-63
2023/05/19 07:51:12;;;;;;;7.60;3.58;;;;;;;;;;5091984;28;20472;-63
2023/05/19 07:53:37;;;;;;;4.80;3.55;;;;;;;;;;5092939;28;20056;-64
2023/05/19 07:56:03;;;;;;;4.45;3.20;;;;;;;;;;5091640;28;20471;-63
2023/05/19 07:58:29;;;;;;;3.47;2.90;;;;;;;;;;5092661;28;20085;-63
2023/05/19 08:00:57;;;;;;;4.82;3.30;;;;;;;;;;5092796;28;20035;-64
2023/05/19 08:03:23;;;;;;;4.38;3.30;;;;;;;;;;5092691;28;20472;-63
2023/05/19 08:05:49;;;;;;;4.55;3.38;;;;;;;;;;5092725;28;20080;-63
2023/05/19 08:08:18;;;;;;;4.60;3.33;;;;;;;;;;5092499;28;20024;-63
2023/05/19 08:10:45;;;;;;;3.80;3.13;;;;;;;;;;5092756;28;20024;-63
2023/05/19 08:13:10;;;;;;;3.72;3.30;;;;;;;;;;5092385;28;20035;-63
2023/05/19 08:15:36;;;;;;;4.90;3.30;;;;;;;;;;5092484;28;20021;-63
2023/05/19 08:18:02;;;;;;;3.10;2.80;;;;;;;;;;5092507;28;20023;-64
2023/05/19 08:20:27;;;;;;;3.58;3.15;;;;;;;;;;5092855;28;20456;-64
2023/05/19 08:22:53;;;;;;;4.25;3.30;;;;;;;;;;5092589;28;20546;-64
2023/05/19 08:25:18;;;;;;;5.80;3.35;;;;;;;;;;5092292;28;20107;-64
2023/05/19 08:27:44;;;;;;;3.40;3.10;;;;;;;;;;5092514;28;20480;-66
2023/05/19 08:30:11;;;;;;;4.80;3.25;;;;;;;;;;5092556;28;20419;-64
2023/05/19 08:32:36;;;;;;;5.20;3.47;;;;;;;;;;5092161;28;20447;-64
2023/05/19 08:35:03;;;;;;;3.53;3.03;;;;;;;;;;5092214;28;20111;-65
2023/05/19 08:37:29;;;;;;;5.20;3.35;;;;;;;;;;5092453;28;20031;-64
2023/05/19 08:39:55;;;;;;;4.97;3.63;;;;;;;;;;5091139;28;20111;-63
2023/05/19 08:42:20;;;;;;;3.58;3.28;;;;;;;;;;5092252;28;20019;-64
2023/05/19 08:44:46;;;;;;;4.65;3.30;;;;;;;;;;5091201;28;20040;-64
2023/05/19 08:47:12;;;;;;;6.22;3.50;;;;;;;;;;5091110;28;20020;-63
2023/05/19 08:49:50;;;;;;;3.90;3.25;;;;;;;;;;5091433;28;20020;-64
2023/05/19 08:52:30;;;;;;;4.50;3.55;;;;;;;;;;5090861;28;20060;-65
2023/05/19 08:55:08;;;;;;;4.18;3.20;;;;;;;;;;5090459;28;20064;-64
2023/05/19 08:57:35;;;;;;;6.47;3.50;;;;;;;;;;5085860;28;20035;-64
2023/05/19 09:00:07;;;;;;;4.53;3.40;;;;;;;;;;5089181;28;20036;-64
2023/05/19 09:02:35;;;;;;;4.68;3.30;;;;;;;;;;5089233;28;20040;-63
2023/05/19 09:05:02;;;;;;;4.25;3.47;;;;;;;;;;5095786;28;20038;-63
2023/05/19 09:07:29;;;;;;;5.50;3.45;;;;;;;;;;5093017;28;20472;-63
2023/05/19 09:09:55;;;;;;;5.97;3.75;;;;;;;;;;5092291;28;20066;-63
2023/05/19 09:12:22;;;;;;;4.13;3.17;;;;;;;;;;5093220;28;20059;-64
2023/05/19 09:14:48;;;;;;;4.07;3.42;;;;;;;;;;5094312;28;20012;-64
2023/05/19 09:17:14;;;;;;;4.40;3.85;;;;;;;;;;5095048;28;20024;-63
2023/05/19 09:19:46;;;;;;;4.65;3.30;;;;;;;;;;5095828;28;20089;-64
2023/05/19 09:22:14;;;;;;;4.97;3.67;;;;;;;;;;5095682;28;20016;-64
2023/05/19 09:24:40;;;;;;;4.97;3.55;;;;;;;;;;5095299;28;20492;-64
2023/05/19 09:27:06;;;;;;;3.83;3.22;;;;;;;;;;5095328;28;20028;-64
2023/05/19 09:29:31;;;;;;;3.90;3.33;;;;;;;;;;5092824;28;20028;-64
2023/05/19 09:32:03;;;;;;;5.60;3.67;;;;;;;;;;5093296;28;20024;-63
2023/05/19 09:34:28;;;;;;;3.95;3.53;;;;;;;;;;5095437;28;20032;-64
2023/05/19 09:36:54;;;;;;;4.97;3.70;;;;;;;;;;5094550;28;20692;-63
2023/05/19 09:39:21;;;;;;;4.30;3.47;;;;;;;;;;5093653;28;20035;-63
2023/05/19 09:41:50;;;;;;;4.63;3.70;;;;;;;;;;5093452;28;20111;-63
2023/05/19 09:44:19;;;;;;;4.23;3.57;;;;;;;;;;5094493;28;20396;-64
2023/05/19 09:46:51;;;;;;;6.20;3.60;;;;;;;;;;5095240;28;20040;-63
2023/05/19 09:49:24;;;;;;;4.60;3.30;;;;;;;;;;5094761;28;20030;-63
2023/05/19 09:51:56;;;;;;;4.25;3.80;;;;;;;;;;5093607;28;20154;-64
2023/05/19 09:54:23;;;;;;;6.80;4.00;;;;;;;;;;5094895;28;20039;-62
2023/05/19 09:57:02;;;;;;;4.13;3.25;;;;;;;;;;5094604;28;20031;-63
2023/05/19 09:59:29;;;;;;;3.30;3.00;;;;;;;;;;5094675;28;20020;-63
2023/05/19 10:01:56;;;;;;;4.78;3.45;;;;;;;;;;5094978;28;20024;-63
2023/05/19 10:04:23;;;;;;;5.00;3.55;;;;;;;;;;5094722;28;20533;-63
2023/05/19 10:06:58;;;;;;;4.40;3.42;;;;;;;;;;5094727;28;20036;-63
2023/05/19 10:09:28;;;;;;;4.82;3.92;;;;;;;;;;5094772;28;20541;-63
2023/05/19 10:11:55;;;;;;;7.05;3.53;;;;;;;;;;5094733;28;20054;-63
2023/05/19 10:14:26;;;;;;;4.00;3.55;;;;;;;;;;5094238;28;20028;-63
2023/05/19 10:16:53;;;;;;;5.07;3.92;;;;;;;;;;5094348;28;20495;-63
2023/05/19 10:19:26;;;;;;;5.15;3.67;;;;;;;;;;5094909;28;20028;-63
2023/05/19 10:21:52;;;;;;;4.25;3.80;;;;;;;;;;5094501;28;20075;-64
2023/05/19 10:24:18;;;;;;;6.00;3.90;;;;;;;;;;5094465;28;20051;-63
2023/05/19 10:27:04;;;;;;;6.18;3.90;;;;;;;;;;5093226;28;20058;-61
2023/05/19 10:29:33;;;;;;;5.35;3.83;;;;;;;;;;5094735;28;20035;-64
2023/05/19 10:32:05;;;;;;;5.00;4.00;;;;;;;;;;5080129;28;20069;-64
2023/05/19 10:34:58;;;;;;;5.28;3.63;;;;;;;;;;5073985;28;20033;-63
2023/05/19 10:37:44;;;;;;;6.00;3.85;;;;;;;;;;5074257;28;20086;-63
2023/05/19 10:40:19;;;;;;;6.82;4.05;;;;;;;;;;5073916;28;20032;-63
2023/05/19 10:43:07;;;;;;;5.63;4.30;;;;;;;;;;5073446;28;20020;-63
2023/05/19 10:45:39;;;;;;;4.32;3.92;;;;;;;;;;5073583;28;20058;-63
2023/05/19 10:48:04;;;;;;;5.15;3.88;;;;;;;;;;5073722;28;20625;-63
2023/05/19 10:50:36;;;;;;;4.95;4.45;;;;;;;;;;5073749;28;20021;-64
2023/05/19 10:53:02;;;;;;;4.70;4.30;;;;;;;;;;5079718;28;20023;-63
2023/05/19 10:56:01;;;;;;;4.43;3.85;;;;;;;;;;5103663;28;20032;-63
2023/05/19 10:58:49;;;;;;;10.83;4.73;;;;;;;;;;5060448;28;20043;-62
2023/05/19 11:01:16;;;;;;;7.15;4.53;;;;;;;;;;5072131;28;20024;-64
2023/05/19 11:03:50;;;;;;;6.07;4.57;;;;;;;;;;5083005;28;20012;-63
2023/05/19 11:06:17;;;;;;;6.82;4.35;;;;;;;;;;5091067;28;20032;-64
2023/05/19 11:08:42;;;;;;;7.57;4.22;;;;;;;;;;5091838;28;20535;-62
2023/05/19 11:11:15;;;;;;;4.90;4.05;;;;;;;;;;5092382;28;20035;-62
2023/05/19 11:13:50;;;;;;;7.00;4.55;;;;;;;;;;5091815;28;20032;-61
2023/05/19 11:16:26;;;;;;;6.68;4.10;;;;;;;;;;5091881;28;20494;-63
2023/05/19 11:18:54;;;;;;;8.10;4.03;;;;;;;;;;5091711;28;20028;-62
2023/05/19 11:21:19;;;;;;;7.97;4.25;;;;;;;;;;5091895;28;20024;-63
2023/05/19 11:23:45;;;;;;;6.90;3.80;;;;;;;;;;5091824;28;20467;-61
2023/05/19 11:26:12;;;;;;;6.97;4.20;;;;;;;;;;5091371;28;20505;-63
2023/05/19 11:28:37;;;;;;;5.00;3.75;;;;;;;;;;5091849;28;20063;-62
2023/05/19 11:31:06;;;;;;;5.97;3.90;;;;;;;;;;5088863;28;20484;-61
2023/05/19 11:33:32;;;;;;;7.10;4.10;;;;;;;;;;5091493;28;20089;-63
2023/05/19 11:35:58;;;;;;;5.57;3.90;;;;;;;;;;5091504;28;20028;-61
2023/05/19 11:38:25;;;;;;;5.85;3.88;;;;;;;;;;5091286;28;20476;-61
2023/05/19 11:40:55;;;;;;;7.28;4.00;;;;;;;;;;5090977;28;20016;-61
2023/05/19 11:43:24;;;;;;;;;;;;;;;;;;5090848;28;20044;-62
2023/05/19 11:45:49;;;;;;;6.75;3.90;;;;;;;;;;5090957;28;20086;-62
2023/05/19 11:48:16;;;;;;;7.97;4.15;;;;;;;;;;5091171;28;20484;-62
2023/05/19 11:50:45;;;;;;;4.30;3.42;;;;;;;;;;5091068;28;20078;-62
2023/05/19 11:53:14;;;;;;;6.55;3.97;;;;;;;;;;5091310;28;20380;-62
2023/05/19 11:55:46;;;;;;;4.65;4.07;;;;;;;;;;5090968;28;20032;-62
2023/05/19 11:58:12;;;;;;;4.35;3.95;;;;;;;;;;5089556;28;20389;-62
2023/05/19 12:00:39;;;;;;;9.15;3.95;;;;;;;;;;5091144;28;20523;-61
2023/05/19 12:03:06;;;;;;;5.53;4.20;;;;;;;;;;5090895;28;20016;-62
2023/05/19 12:05:32;;;;;;;4.50;4.10;;;;;;;;;;5091038;28;20032;-62
2023/05/19 12:07:59;;;;;;;5.32;3.60;;;;;;;;;;5091348;28;20036;-62
2023/05/19 12:10:29;;;;;;;6.00;4.03;;;;;;;;;;5090866;28;20032;-61
2023/05/19 12:12:57;;;;;;;4.55;4.15;;;;;;;;;;5090696;28;20082;-61
2023/05/19 12:15:23;;;;;;;4.15;3.72;;;;;;;;;;5090757;28;20032;-61
2023/05/19 12:17:57;;;;;;;4.25;3.78;;;;;;;;;;5090922;28;20024;-62
2023/05/19 12:20:23;;;;;;;5.40;3.90;;;;;;;;;;5090674;28;20060;-61
2023/05/19 12:22:50;;;;;;;4.40;3.70;;;;;;;;;;5090880;28;20032;-62
2023/05/19 12:25:16;;;;;;;5.10;4.07;;;;;;;;;;5090796;28;20057;-63
2023/05/19 12:27:43;;;;;;;4.07;3.67;;;;;;;;;;5090962;28;20032;-63
2023/05/19 12:30:10;;;;;;;4.43;3.95;;;;;;;;;;5091155;28;20177;-61
2023/05/19 12:32:35;;;;;;;4.70;3.83;;;;;;;;;;5091388;28;20025;-61
2023/05/19 12:35:03;;;;;;;6.22;3.50;;;;;;;;;;5090782;28;20032;-61
2023/05/19 12:37:29;;;;;;;5.20;3.88;;;;;;;;;;5091397;28;20020;-61
2023/05/19 12:39:55;;;;;;;5.47;3.80;;;;;;;;;;5094903;28;20078;-61
2023/05/19 12:42:22;;;;;;;4.35;3.50;;;;;;;;;;5094717;28;20040;-61
2023/05/19 12:44:51;;;;;;;4.40;3.80;;;;;;;;;;5094351;28;20093;-62
2023/05/19 12:47:18;;;;;;;4.37;3.60;;;;;;;;;;5094517;28;20429;-61
2023/05/19 12:50:00;;;;;;;4.30;3.75;;;;;;;;;;5094475;28;20257;-61
2023/05/19 12:52:29;;;;;;;5.32;3.42;;;;;;;;;;5094637;28;20051;-61
2023/05/19 12:55:04;;;;;;;4.45;3.50;;;;;;;;;;5094235;28;20383;-62
2023/05/19 12:57:32;;;;;;;4.25;3.85;;;;;;;;;;5094578;28;20463;-63
2023/05/19 13:00:05;;;;;;;5.25;3.92;;;;;;;;;;5094327;28;20016;-61
2023/05/19 13:02:33;;;;;;;4.20;3.63;;;;;;;;;;5094375;28;20115;-61
2023/05/19 13:04:59;;;;;;;5.07;3.63;;;;;;;;;;5094346;28;20412;-61
2023/05/19 13:07:24;;;;;;;5.70;4.00;;;;;;;;;;5093955;28;20073;-61
2023/05/19 13:09:50;;;;;;;4.78;3.67;;;;;;;;;;5094044;28;20032;-60
2023/05/19 13:12:15;;;;;;;4.30;3.90;;;;;;;;;;5094053;28;20024;-61
2023/05/19 13:14:42;;;;;;;5.88;3.83;;;;;;;;;;5093914;28;20024;-62
2023/05/19 13:17:08;;;;;;;5.95;4.07;;;;;;;;;;5094167;28;20039;-61
2023/05/19 13:19:33;;;;;;;5.82;4.22;;;;;;;;;;5092505;28;20020;-62
2023/05/19 13:21:59;;;;;;;5.80;3.58;;;;;;;;;;5094097;28;20060;-61
2023/05/19 13:24:25;;;;;;;4.15;3.75;;;;;;;;;;5093611;28;20038;-61
2023/05/19 13:26:50;;;;;;;4.15;3.78;;;;;;;;;;5093987;28;20028;-61
2023/05/19 13:29:16;;;;;;;6.55;3.88;;;;;;;;;;5093674;28;20403;-61
2023/05/19 13:31:41;;;;;;;6.13;3.90;;;;;;;;;;5093812;28;20024;-61
2023/05/19 13:34:07;;;;;;;4.80;4.32;;;;;;;;;;5093826;28;20051;-60
2023/05/19 13:36:33;;;;;;;4.47;4.00;;;;;;;;;;5093753;28;20024;-60
2023/05/19 13:39:00;;;;;;;6.50;4.25;;;;;;;;;;5093703;28;20078;-60
2023/05/19 13:41:25;;;;;;;5.18;4.05;;;;;;;;;;5093345;28;20024;-60
2023/05/19 13:43:52;;;;;;;4.47;3.90;;;;;;;;;;5093248;28;20116;-60
2023/05/19 13:46:18;;;;;;;5.97;4.10;;;;;;;;;;5093368;28;20479;-60
2023/05/19 13:48:43;;;;;;;6.47;4.00;;;;;;;;;;5092906;28;20032;-60
2023/05/19 13:51:09;;;;;;;3.92;3.55;;;;;;;;;;5092669;28;20024;-60
2023/05/19 13:53:34;;;;;;;4.65;3.88;;;;;;;;;;5093206;28;20111;-61
2023/05/19 13:56:00;;;;;;;6.93;3.75;;;;;;;;;;5093166;28;20028;-62
2023/05/19 13:58:25;;;;;;;7.93;3.30;;;;;;;;;;5093298;28;20031;-60
2023/05/19 14:00:53;;;;;;;5.85;3.45;;;;;;;;;;5093522;28;20405;-61
2023/05/19 14:03:19;;;;;;;13.65;3.67;;;;;;;;;;5092975;28;20043;-61
2023/05/19 14:05:47;;;;;;;8.25;3.80;;;;;;;;;;5092816;28;20032;-61
2023/05/19 14:08:13;;;;;;;6.25;3.92;;;;;;;;;;5092841;28;20035;-61
2023/05/19 14:10:38;;;;;;;5.22;4.18;;;;;;;;;;5093161;28;20119;-61
2023/05/19 14:13:04;;;;;;;7.72;3.95;;;;;;;;;;5093007;28;20515;-62
2023/05/19 14:15:32;;;;;;;5.05;3.70;;;;;;;;;;5093167;28;20067;-61
2023/05/19 14:17:58;;;;;;;7.78;3.70;;;;;;;;;;5092992;28;20036;-61
2023/05/19 14:20:23;;;;;;;6.00;3.88;;;;;;;;;;5092864;28;20211;-61
2023/05/19 14:22:49;;;;;;;4.10;3.70;;;;;;;;;;5092703;28;20035;-60
2023/05/19 14:25:14;;;;;;;8.75;3.50;;;;;;;;;;5092530;28;20036;-62
2023/05/19 14:27:40;;;;;;;3.72;3.42;;;;;;;;;;5092824;28;20024;-61
2023/05/19 14:30:06;;;;;;;4.75;3.42;;;;;;;;;;5092754;28;20027;-60
2023/05/19 14:32:32;;;;;;;6.28;3.35;;;;;;;;;;5092591;28;20388;-60
2023/05/19 14:34:57;;;;;;;4.40;3.30;;;;;;;;;;5092623;28;20020;-60
2023/05/19 14:37:25;;;;;;;8.63;3.65;;;;;;;;;;5092460;28;20059;-62
2023/05/19 14:39:50;;;;;;;4.90;4.00;;;;;;;;;;5092189;28;20103;-60
2023/05/19 14:42:16;;;;;;;4.28;3.22;;;;;;;;;;5092268;28;20116;-60
2023/05/19 14:44:41;;;;;;;5.18;3.53;;;;;;;;;;5091990;28;20408;-60
2023/05/19 14:47:07;;;;;;;3.65;3.35;;;;;;;;;;5091115;28;20024;-61